マニラ/ニノイ・アキノ の空港の天気 - METARとTAF

ニノイ・アキノ国際空港 ( RPLL / MNL ) - フィリピン マニラ
飛行場実況気象(Metar)
観測時間05/25 18:00 +08 (05/25 10:00 UTC)
風向・風速西 3m/s
視程10km以上
天気現象
少しの雲 雲底高度 760m
全天の8割程度の雲 雲底高度 7320m
気温29℃
湿度94%
気圧1007hPa
METARRPLL 251000Z 28006KT 9999 FEW025 BKN240 29/28 Q1007 NOSIG RMK A2974
過去の天気等 Google飛行場航空写真 Wunderground天気予報

過去48時間のMETAR

飛行場予報(TAF)
発表時間: 5/25 13:00 +08 (5/25 05:00 UTC)
予報対象時間: 25日14時 +08 ~ 26日20時 +08
風向・風速西 3m/s
視程10km以上
少しの雲 雲底高度 760m
全天の4割程度の雲 雲底高度 3,050m
25日14時 +08 ~ 25日20時 +08 に一時的に
風向・風速西 6m/s
視程8,000m
天気現象弱い雷雨
少しの積乱雲 雲底高度 670m
全天の4割程度の雲 雲底高度 760m
全天を覆う雲 雲底高度 3,050m
25日20時 +08 ~ 26日2時 +08 に一時的に
風向・風速西 3m/s
視程9,000m
天気現象弱いしゅう雨
全天の4割程度の雲 雲底高度 760m
全天の8割程度の雲 雲底高度 3,050m
TAF RPLL 250500Z 2506/2612 26006KT 9999 FEW025 SCT100 TX31/2506Z TN27/2522Z
TEMPO 2506/2512 28012KT 8000 -TSRA FEW022CB SCT025 OVC100
TEMPO 2512/2518 28006KT 9000 -SHRA SCT025 BKN100